createdAt,value
2023-05-14T00:00:51.070Z,13936.6924
2023-05-14T00:01:52.500Z,13935.0771
2023-05-14T00:02:53.943Z,13933.8457
2023-05-14T00:03:55.321Z,13938.0000
2023-05-14T00:04:56.663Z,13938.0000
2023-05-14T00:05:58.109Z,13938.6924
2023-05-14T00:06:59.626Z,13942.3076
2023-05-14T00:08:01.001Z,13937.2305
2023-05-14T00:09:02.356Z,13942.6152
2023-05-14T00:10:03.832Z,13944.3076
2023-05-14T00:11:05.205Z,13936.3076
2023-05-14T00:12:06.742Z,13934.1543
2023-05-14T00:13:08.143Z,13935.4619
2023-05-14T00:14:09.513Z,13940.7695
2023-05-14T00:15:10.872Z,13943.0771
2023-05-14T00:16:12.398Z,13943.3848
2023-05-14T00:17:13.769Z,13940.1543
2023-05-14T00:18:15.251Z,13938.6152
2023-05-14T00:19:16.671Z,13941.3076
2023-05-14T00:20:18.117Z,13946.7695
2023-05-14T00:21:19.393Z,13936.7695
2023-05-14T00:22:20.897Z,13936.1543
2023-05-14T00:23:22.351Z,13939.2305
2023-05-14T00:24:23.719Z,13939.3076
2023-05-14T00:25:25.085Z,13939.3076
2023-05-14T00:26:26.631Z,13935.5381
2023-05-14T00:27:28.064Z,13934.7695
2023-05-14T00:28:29.485Z,13942.0000
2023-05-14T00:29:30.891Z,13943.7695
2023-05-14T00:30:32.254Z,13941.0000
2023-05-14T00:31:33.813Z,13937.0771
2023-05-14T00:32:35.144Z,13946.0771
2023-05-14T00:33:36.560Z,13944.3848
2023-05-14T00:34:37.954Z,13941.3076
2023-05-14T00:35:39.401Z,13939.1543
2023-05-14T00:36:40.816Z,13937.3076
2023-05-14T00:37:42.282Z,13939.1543
2023-05-14T00:38:43.615Z,13936.2305
2023-05-14T00:39:45.080Z,13946.0000
2023-05-14T00:40:46.472Z,13937.2305
2023-05-14T00:41:47.840Z,13942.9229
2023-05-14T00:42:49.271Z,13939.1543
2023-05-14T00:43:50.834Z,13939.3848
2023-05-14T00:44:52.183Z,13937.2305
2023-05-14T00:45:53.678Z,13942.3076
2023-05-14T00:46:55.097Z,13942.2305
2023-05-14T00:47:56.519Z,13938.4619
2023-05-14T00:48:57.928Z,13938.5381
2023-05-14T00:49:59.349Z,13937.3848
2023-05-14T00:51:00.739Z,13937.7695
2023-05-14T00:52:02.200Z,13937.2305
2023-05-14T00:53:03.643Z,13938.3848
2023-05-14T00:54:05.805Z,13940.1543
2023-05-14T00:55:06.584Z,13946.1543
2023-05-14T00:56:07.841Z,13944.4619
2023-05-14T00:57:09.307Z,13941.7695
2023-05-14T00:58:10.742Z,13941.6152
2023-05-14T00:59:12.193Z,13938.6152
2023-05-14T01:00:13.500Z,13941.1543
2023-05-14T01:01:14.980Z,13945.3076
2023-05-14T01:02:16.479Z,13943.6924
2023-05-14T01:03:18.007Z,13939.0771
2023-05-14T01:04:19.273Z,13945.8457
2023-05-14T01:05:20.755Z,13942.4619
2023-05-14T01:06:22.090Z,13940.7695
2023-05-14T01:07:23.520Z,13943.2305
2023-05-14T01:08:25.046Z,13944.3848
2023-05-14T01:09:26.397Z,13939.4619
2023-05-14T01:10:27.810Z,13949.6924
2023-05-14T01:11:29.282Z,13943.5381
2023-05-14T01:12:30.701Z,13941.7695
2023-05-14T01:13:32.049Z,13945.0000
2023-05-14T01:14:33.476Z,13943.7695
2023-05-14T01:15:34.903Z,13941.3076
2023-05-14T01:16:36.382Z,13945.9229
2023-05-14T01:17:37.811Z,13945.0771
2023-05-14T01:18:39.288Z,13944.2305
2023-05-14T01:19:40.664Z,13941.6152
2023-05-14T01:20:42.071Z,13940.0771
2023-05-14T01:21:43.458Z,13946.2305
2023-05-14T01:22:44.943Z,13945.2305
2023-05-14T01:23:46.324Z,13946.3848
2023-05-14T01:24:47.733Z,13947.0771
2023-05-14T01:25:49.222Z,13946.7695
2023-05-14T01:26:50.527Z,13943.9229
2023-05-14T01:27:52.109Z,13940.6924
2023-05-14T01:28:53.416Z,13940.5381
2023-05-14T01:29:54.833Z,13944.6924
2023-05-14T01:30:56.407Z,13948.8457
2023-05-14T01:31:58.906Z,13946.3848
2023-05-14T01:32:59.197Z,13944.5381
2023-05-14T01:34:00.612Z,13940.0771
2023-05-14T01:35:02.084Z,13941.5381
2023-05-14T01:36:04.370Z,13942.1543
2023-05-14T01:37:04.952Z,13943.4619
2023-05-14T01:38:06.408Z,13947.0771
2023-05-14T01:39:07.788Z,13941.8457
2023-05-14T01:40:09.143Z,13945.2305
2023-05-14T01:41:10.634Z,13946.5381
2023-05-14T01:42:12.064Z,13944.3848
2023-05-14T01:43:13.489Z,13946.7695
2023-05-14T01:44:14.898Z,13948.2305
2023-05-14T01:45:16.286Z,13946.3848
2023-05-14T01:46:17.808Z,13950.0000
2023-05-14T01:47:19.886Z,13949.9229
2023-05-14T01:48:20.567Z,13950.5381
2023-05-14T01:49:21.958Z,13950.9229
2023-05-14T01:50:23.689Z,13945.2305
2023-05-14T01:51:24.853Z,13947.0771
2023-05-14T01:52:26.283Z,13944.7695
2023-05-14T01:53:27.631Z,13946.3848
2023-05-14T01:54:29.144Z,13946.1543
2023-05-14T01:55:30.472Z,13949.1543
2023-05-14T01:56:31.959Z,13953.0000
2023-05-14T01:57:33.446Z,13950.9229
2023-05-14T01:58:34.757Z,13950.2305
2023-05-14T01:59:36.118Z,13952.5381
2023-05-14T02:00:37.614Z,13955.9229
2023-05-14T02:01:39.131Z,13950.4619
2023-05-14T02:02:40.476Z,13951.5381
2023-05-14T02:03:42.006Z,13953.0771
2023-05-14T02:04:43.321Z,13954.2305
2023-05-14T02:05:44.686Z,13955.3076
2023-05-14T02:06:46.852Z,13953.4619
2023-05-14T02:07:47.669Z,13952.6152
2023-05-14T02:08:48.977Z,13951.1543
2023-05-14T02:09:50.473Z,13950.6152
2023-05-14T02:10:51.823Z,13952.4619
2023-05-14T02:11:53.353Z,13947.6924
2023-05-14T02:12:54.685Z,13951.3848
2023-05-14T02:13:56.162Z,13955.2305
2023-05-14T02:14:57.613Z,13953.6152
2023-05-14T02:15:59.121Z,13951.1543
2023-05-14T02:17:00.429Z,13954.1543
2023-05-14T02:18:01.993Z,13955.8457
2023-05-14T02:19:03.378Z,13950.8457
2023-05-14T02:20:04.677Z,13955.5381
2023-05-14T02:21:06.080Z,13952.0000
2023-05-14T02:22:07.569Z,13951.3848
2023-05-14T02:23:08.932Z,13953.2305
2023-05-14T02:24:10.314Z,13951.3848
2023-05-14T02:25:11.778Z,13951.8457
2023-05-14T02:26:13.253Z,13956.3076
2023-05-14T02:27:14.776Z,13955.0771
2023-05-14T02:28:16.047Z,13953.9229
2023-05-14T02:29:17.483Z,13952.6152
2023-05-14T02:30:18.859Z,13956.0771
2023-05-14T02:31:20.395Z,13955.6924
2023-05-14T02:32:21.827Z,13952.3848
2023-05-14T02:33:23.322Z,13953.4619
2023-05-14T02:34:24.599Z,13952.6924
2023-05-14T02:35:26.068Z,13953.6924
2023-05-14T02:36:27.420Z,13956.7695
2023-05-14T02:37:28.992Z,13957.6924
2023-05-14T02:38:30.292Z,13957.6152
2023-05-14T02:39:31.643Z,13959.0771
2023-05-14T02:40:33.107Z,13957.6152
2023-05-14T02:41:34.593Z,13955.0000
2023-05-14T02:42:35.990Z,13952.0000
2023-05-14T02:43:37.440Z,13952.6924
2023-05-14T02:44:38.722Z,13956.5381
2023-05-14T02:45:40.306Z,13954.3848
2023-05-14T02:46:41.719Z,13958.1543
2023-05-14T02:47:43.945Z,13956.9229
2023-05-14T02:48:45.333Z,13958.1543
2023-05-14T02:49:45.831Z,13955.7695
2023-05-14T02:50:47.420Z,13953.7695
2023-05-14T02:51:48.778Z,13959.9229
2023-05-14T02:52:50.293Z,13959.6924
2023-05-14T02:53:51.696Z,13957.6152
2023-05-14T02:54:53.814Z,13959.9229
2023-05-14T02:55:54.546Z,13961.3848
2023-05-14T02:56:55.908Z,13961.3848
2023-05-14T02:57:57.356Z,13959.8457
2023-05-14T02:58:59.417Z,13964.0771
2023-05-14T03:00:00.052Z,13961.0000
2023-05-14T03:01:01.647Z,13962.7695
2023-05-14T03:02:03.093Z,13960.6924
2023-05-14T03:03:04.467Z,13962.1543
2023-05-14T03:04:05.899Z,13965.3848
2023-05-14T03:05:07.286Z,13963.8457
2023-05-14T03:06:08.728Z,13963.6924
2023-05-14T03:07:10.116Z,13965.0000
2023-05-14T03:08:11.449Z,13961.6152
2023-05-14T03:09:12.956Z,13963.0771
2023-05-14T03:10:14.407Z,13962.3848
2023-05-14T03:11:15.792Z,13963.7695
2023-05-14T03:12:17.246Z,13968.5381
2023-05-14T03:13:18.552Z,13963.7695
2023-05-14T03:14:20.063Z,13964.8457
2023-05-14T03:15:21.414Z,13965.2305
2023-05-14T03:16:22.930Z,13967.9229
2023-05-14T03:17:24.274Z,13965.7695
2023-05-14T03:18:25.855Z,13968.0771
2023-05-14T03:19:27.160Z,13967.6924
2023-05-14T03:20:28.593Z,13965.2305
2023-05-14T03:21:30.020Z,13969.7695
2023-05-14T03:22:31.425Z,13970.5381
2023-05-14T03:23:33.366Z,13967.7695
2023-05-14T03:24:34.289Z,13970.3848
2023-05-14T03:25:35.702Z,13971.3076
2023-05-14T03:26:37.076Z,13968.5381
2023-05-14T03:27:38.551Z,13969.1543
2023-05-14T03:28:39.977Z,13969.1543
2023-05-14T03:29:41.416Z,13970.6924
2023-05-14T03:30:42.920Z,13970.3076
2023-05-14T03:31:44.240Z,13970.2305
2023-05-14T03:32:45.642Z,13968.3848
2023-05-14T03:33:47.048Z,13969.0771
2023-05-14T03:34:48.486Z,13972.8457
2023-05-14T03:35:49.920Z,13970.0771
2023-05-14T03:36:51.283Z,13970.3076
2023-05-14T03:37:52.753Z,13971.7695
2023-05-14T03:38:54.180Z,13971.0771
2023-05-14T03:39:55.668Z,13969.6152
2023-05-14T03:40:57.014Z,13971.7695
2023-05-14T03:41:58.441Z,13970.6924
2023-05-14T03:42:59.827Z,13976.0771
2023-05-14T03:44:01.320Z,13973.7695
2023-05-14T03:45:02.760Z,13973.9229
2023-05-14T03:46:04.139Z,13977.5381
2023-05-14T03:47:05.605Z,13972.6152
2023-05-14T03:48:07.102Z,13974.9229
2023-05-14T03:49:08.482Z,13976.4619
2023-05-14T03:50:09.958Z,13975.9229
2023-05-14T03:51:11.259Z,13973.3076
2023-05-14T03:52:12.695Z,13975.9229
2023-05-14T03:53:14.093Z,13974.2305
2023-05-14T03:54:15.549Z,13976.1543
2023-05-14T03:55:17.024Z,13975.1543
2023-05-14T03:56:18.285Z,13977.0771
2023-05-14T03:57:19.756Z,13975.4619
2023-05-14T03:58:21.237Z,13974.5381
2023-05-14T03:59:22.651Z,13978.0000
2023-05-14T04:00:24.333Z,13974.8457
2023-05-14T04:01:25.505Z,13973.0000
2023-05-14T04:02:27.046Z,13975.6924
2023-05-14T04:03:28.407Z,13971.3848
2023-05-14T04:04:29.828Z,13973.1543
2023-05-14T04:05:31.904Z,13972.5381
2023-05-14T04:06:32.607Z,13971.0771
2023-05-14T04:07:34.014Z,13975.0771
2023-05-14T04:08:35.509Z,13974.2305
2023-05-14T04:09:36.938Z,13979.3076
2023-05-14T04:10:38.448Z,13975.1543
2023-05-14T04:11:39.792Z,13977.0000
2023-05-14T04:12:41.184Z,13975.1543
2023-05-14T04:13:42.569Z,13972.9229
2023-05-14T04:14:44.046Z,13969.4619
2023-05-14T04:15:46.354Z,13973.7695
2023-05-14T04:16:46.980Z,13972.0000
2023-05-14T04:17:48.350Z,13971.4619
2023-05-14T04:18:49.780Z,13972.7695
2023-05-14T04:19:51.141Z,13971.3848
2023-05-14T04:20:52.609Z,13968.7695
2023-05-14T04:21:54.033Z,13968.2305
2023-05-14T04:22:55.352Z,13967.6924
2023-05-14T04:23:56.871Z,13964.6924
2023-05-14T04:24:58.393Z,13966.0000
2023-05-14T04:25:59.681Z,13966.5381
2023-05-14T04:27:01.150Z,13967.3848
2023-05-14T04:28:02.514Z,13966.0000
2023-05-14T04:29:03.884Z,13966.4619
2023-05-14T04:30:05.380Z,13966.2305
2023-05-14T04:31:06.831Z,13965.4619
2023-05-14T04:32:08.307Z,13963.5381
2023-05-14T04:33:09.748Z,13964.1543
2023-05-14T04:34:11.076Z,13968.6924
2023-05-14T04:35:12.561Z,13964.4619
2023-05-14T04:36:13.957Z,13962.7695
2023-05-14T04:37:15.289Z,13962.5381
2023-05-14T04:38:16.762Z,13961.6152
2023-05-14T04:39:18.217Z,13960.9229
2023-05-14T04:40:19.704Z,13959.0771
2023-05-14T04:41:21.145Z,13960.9229
2023-05-14T04:42:22.443Z,13958.0000
2023-05-14T04:43:23.934Z,13960.7695
2023-05-14T04:44:25.315Z,13960.5381
2023-05-14T04:45:26.819Z,13964.2305
2023-05-14T04:46:28.369Z,13959.5381
2023-05-14T04:47:29.762Z,13956.5381
2023-05-14T04:48:31.052Z,13951.6152
2023-05-14T04:49:32.534Z,13955.5381
2023-05-14T04:50:33.900Z,13956.0771
2023-05-14T04:51:35.386Z,13956.7695
2023-05-14T04:52:36.749Z,13955.0771
2023-05-14T04:53:38.217Z,13955.4619
2023-05-14T04:54:39.716Z,13962.0000
2023-05-14T04:55:40.958Z,13953.8457
2023-05-14T04:56:42.582Z,13958.0771
2023-05-14T04:57:43.901Z,13957.3076
2023-05-14T04:58:45.284Z,13957.5381
2023-05-14T04:59:46.770Z,13951.1543
2023-05-14T05:00:48.253Z,13955.4619
2023-05-14T05:01:49.698Z,13955.2305
2023-05-14T05:02:51.029Z,13955.4619
2023-05-14T05:03:52.368Z,13963.1543
2023-05-14T05:04:53.880Z,13962.1543
2023-05-14T05:05:55.322Z,13958.9229
2023-05-14T05:06:56.745Z,13956.3848
2023-05-14T05:07:58.188Z,13960.1543
2023-05-14T05:09:01.845Z,13953.6152
2023-05-14T05:10:00.991Z,13954.6924
2023-05-14T05:11:02.464Z,13953.6924
2023-05-14T05:12:03.866Z,13960.4619
2023-05-14T05:13:05.376Z,13958.8457
2023-05-14T05:14:06.826Z,13956.3848
2023-05-14T05:15:08.137Z,13954.8457
2023-05-14T05:16:09.723Z,13964.3076
2023-05-14T05:17:11.012Z,13952.4619
2023-05-14T05:18:12.467Z,13952.3848
2023-05-14T05:19:13.981Z,13952.8457
2023-05-14T05:20:15.377Z,13953.6924
2023-05-14T05:21:16.650Z,13959.6924
2023-05-14T05:22:18.947Z,13958.8457
2023-05-14T05:23:19.491Z,13965.0771
2023-05-14T05:24:20.962Z,13961.3848
2023-05-14T05:25:22.389Z,13949.6924
2023-05-14T05:26:23.802Z,13952.1543
2023-05-14T05:27:25.237Z,13952.3076
2023-05-14T05:28:26.664Z,13956.8457
2023-05-14T05:29:28.031Z,13957.4619
2023-05-14T05:30:29.475Z,13951.2305
2023-05-14T05:31:30.970Z,13955.3848
2023-05-14T05:32:32.487Z,13959.9229
2023-05-14T05:33:33.839Z,13948.3076
2023-05-14T05:34:35.255Z,13948.6924
2023-05-14T05:35:36.710Z,13946.6924
2023-05-14T05:36:38.039Z,13947.8457
2023-05-14T05:37:39.565Z,13951.9229
2023-05-14T05:38:40.973Z,13946.0000
2023-05-14T05:39:42.390Z,13945.4619
2023-05-14T05:40:43.774Z,13950.3076
2023-05-14T05:41:45.353Z,13947.8457
2023-05-14T05:42:46.613Z,13951.6924
2023-05-14T05:43:48.190Z,13952.0000
2023-05-14T05:44:49.591Z,13957.9229
2023-05-14T05:45:51.002Z,13958.3076
2023-05-14T05:46:52.386Z,13954.6152
2023-05-14T05:47:53.874Z,13949.5381
2023-05-14T05:48:55.130Z,13945.3848
2023-05-14T05:49:56.612Z,13942.1543
2023-05-14T05:50:57.986Z,13951.3848
2023-05-14T05:51:59.459Z,13943.4619
2023-05-14T05:53:00.934Z,13945.3076
2023-05-14T05:54:02.470Z,13949.3076
2023-05-14T05:55:03.781Z,13939.7695
2023-05-14T05:56:05.123Z,13942.6152
2023-05-14T05:57:06.578Z,13948.1543
2023-05-14T05:58:08.030Z,13948.2305
2023-05-14T05:59:09.468Z,13952.1543
2023-05-14T06:00:10.869Z,13946.6152
2023-05-14T06:01:12.255Z,13949.6924
2023-05-14T06:02:13.773Z,13948.2305
2023-05-14T06:03:15.163Z,13942.6152
2023-05-14T06:04:16.609Z,13931.7695
2023-05-14T06:05:18.007Z,13936.5381
2023-05-14T06:06:19.535Z,13934.3076
2023-05-14T06:07:20.794Z,13928.7695
2023-05-14T06:08:22.273Z,13923.4619
2023-05-14T06:09:23.664Z,13914.5381
2023-05-14T06:10:25.374Z,13905.1543
2023-05-14T06:11:26.497Z,13897.5381
2023-05-14T06:12:27.953Z,13902.6152
2023-05-14T06:13:29.350Z,13900.0771
2023-05-14T06:14:30.829Z,13896.1543
2023-05-14T06:15:32.165Z,13885.0771
2023-05-14T06:16:33.697Z,13877.6152
2023-05-14T06:17:35.063Z,13868.6152
2023-05-14T06:18:36.582Z,13861.8457
2023-05-14T06:19:37.969Z,13866.7695
2023-05-14T06:20:39.389Z,13868.5381
2023-05-14T06:21:40.680Z,13865.8457
2023-05-14T06:22:42.122Z,13860.7695
2023-05-14T06:23:43.625Z,13854.6152
2023-05-14T06:24:45.017Z,13850.3076
2023-05-14T06:25:46.570Z,13841.0771
2023-05-14T06:26:47.849Z,13835.0771
2023-05-14T06:27:49.258Z,13820.1543
2023-05-14T06:28:50.624Z,13818.3076
2023-05-14T06:29:52.069Z,13820.7695
2023-05-14T06:30:53.514Z,13828.7695
2023-05-14T06:31:54.999Z,13822.0771
2023-05-14T06:32:56.335Z,13813.6152
2023-05-14T06:33:57.645Z,13804.6924
2023-05-14T06:34:59.183Z,13795.9229
2023-05-14T06:36:00.570Z,13809.0000
2023-05-14T06:37:01.973Z,13823.3076
2023-05-14T06:38:03.372Z,13813.9229
2023-05-14T06:39:04.805Z,13801.9229
2023-05-14T06:40:06.269Z,13792.3848
2023-05-14T06:41:07.670Z,13780.7695
2023-05-14T06:42:09.027Z,13778.7695
2023-05-14T06:43:10.585Z,13803.6152
2023-05-14T06:44:11.917Z,13806.6924
2023-05-14T06:45:13.398Z,13791.1543
2023-05-14T06:46:14.760Z,13776.1543
2023-05-14T06:47:16.213Z,13773.7695
2023-05-14T06:48:17.549Z,13766.6152
2023-05-14T06:49:19.024Z,13787.1543
2023-05-14T06:50:20.518Z,13795.5381
2023-05-14T06:51:21.924Z,13779.3076
2023-05-14T06:52:23.353Z,13765.1543
2023-05-14T06:53:24.797Z,13756.8457
2023-05-14T06:54:26.191Z,13754.6924
2023-05-14T06:55:27.602Z,13773.0000
2023-05-14T06:56:28.947Z,13786.6152
2023-05-14T06:57:30.505Z,13765.7695
2023-05-14T06:58:31.769Z,13753.0771
2023-05-14T06:59:33.245Z,13747.2305
2023-05-14T07:00:34.710Z,13758.2305
2023-05-14T07:01:36.234Z,13778.0000
2023-05-14T07:02:37.401Z,13765.1543
2023-05-14T07:03:39.017Z,13748.9229
2023-05-14T07:04:40.392Z,13740.1543
2023-05-14T07:05:41.842Z,13751.9229
2023-05-14T07:06:43.187Z,13773.0771
2023-05-14T07:07:44.629Z,13763.8457
2023-05-14T07:08:46.030Z,13744.3076
2023-05-14T07:09:47.464Z,13734.7695
2023-05-14T07:10:48.929Z,13747.1543
2023-05-14T07:11:50.329Z,13768.1543
2023-05-14T07:12:51.725Z,13755.8457
2023-05-14T07:13:53.244Z,13735.0771
2023-05-14T07:14:54.551Z,13727.7695
2023-05-14T07:15:56.089Z,13752.3076
2023-05-14T07:16:57.523Z,13769.6924
2023-05-14T07:17:58.907Z,13761.3848
2023-05-14T07:19:00.331Z,13754.2305
2023-05-14T07:20:01.833Z,13748.9229
2023-05-14T07:21:03.168Z,13771.2305
2023-05-14T07:22:04.492Z,13795.3848
2023-05-14T07:23:05.902Z,13789.7695
2023-05-14T07:24:07.444Z,13774.3076
2023-05-14T07:25:08.782Z,13772.0000
2023-05-14T07:26:10.287Z,13791.7695
2023-05-14T07:27:11.770Z,13806.4619
2023-05-14T07:28:13.126Z,13799.2305
2023-05-14T07:29:14.406Z,13791.0000
2023-05-14T07:30:16.077Z,13785.6152
2023-05-14T07:31:17.360Z,13785.0000
2023-05-14T07:32:18.781Z,13786.9229
2023-05-14T07:33:20.210Z,13805.5381
2023-05-14T07:34:21.585Z,13817.1543
2023-05-14T07:35:23.022Z,13806.8457
2023-05-14T07:36:24.496Z,13800.0000
2023-05-14T07:37:25.941Z,13799.6152
2023-05-14T07:38:27.350Z,13795.6152
2023-05-14T07:39:28.765Z,13786.7695
2023-05-14T07:40:30.140Z,13801.1543
2023-05-14T07:41:31.661Z,13819.7695
2023-05-14T07:42:36.588Z,13813.4619
2023-05-14T07:43:34.390Z,13806.6924
2023-05-14T07:44:35.834Z,13806.0771
2023-05-14T07:45:37.288Z,13798.5381
2023-05-14T07:46:38.694Z,13800.0000
2023-05-14T07:47:40.152Z,13800.3848
2023-05-14T07:48:41.528Z,13813.6152
2023-05-14T07:49:42.919Z,13824.8457
2023-05-14T07:50:44.358Z,13823.8457
2023-05-14T07:51:45.836Z,13814.0771
2023-05-14T07:52:47.231Z,13811.5381
2023-05-14T07:53:48.624Z,13811.6924
2023-05-14T07:54:50.757Z,13809.8457
2023-05-14T07:55:51.436Z,13807.4619
2023-05-14T07:56:52.889Z,13819.1543
2023-05-14T07:57:54.356Z,13834.6924
2023-05-14T07:58:55.693Z,13828.4619
2023-05-14T07:59:57.073Z,13822.0771
2023-05-14T08:00:58.555Z,13818.9229
2023-05-14T08:02:00.067Z,13815.3076
2023-05-14T08:03:01.459Z,13811.7695
2023-05-14T08:04:02.927Z,13808.2305
2023-05-14T08:05:04.257Z,13822.3848
2023-05-14T08:06:05.728Z,13837.6152
2023-05-14T08:07:07.122Z,13830.2305
2023-05-14T08:08:08.571Z,13823.2305
2023-05-14T08:09:09.894Z,13822.4619
2023-05-14T08:10:11.352Z,13815.8457
2023-05-14T08:11:12.753Z,13815.7695
2023-05-14T08:12:14.222Z,13812.5381
2023-05-14T08:13:15.652Z,13827.8457
2023-05-14T08:14:16.952Z,13839.7695
2023-05-14T08:15:18.434Z,13835.3848
2023-05-14T08:16:19.949Z,13824.6924
2023-05-14T08:17:21.348Z,13821.8457
2023-05-14T08:18:22.765Z,13817.0771
2023-05-14T08:19:24.168Z,13813.6924
2023-05-14T08:20:25.886Z,13812.3848
2023-05-14T08:21:26.969Z,13828.1543
2023-05-14T08:22:28.427Z,13839.0000
2023-05-14T08:23:29.885Z,13825.9229
2023-05-14T08:24:31.328Z,13824.6152
2023-05-14T08:25:32.713Z,13815.8457
2023-05-14T08:26:34.216Z,13814.3076
2023-05-14T08:27:35.597Z,13809.6924
2023-05-14T08:28:37.079Z,13814.7695
2023-05-14T08:29:38.454Z,13832.5381
2023-05-14T08:30:39.806Z,13832.8457
2023-05-14T08:31:41.304Z,13825.7695
2023-05-14T08:32:42.733Z,13815.1543
2023-05-14T08:33:44.173Z,13813.0771
2023-05-14T08:34:45.623Z,13807.3848
2023-05-14T08:35:46.961Z,13805.6152
2023-05-14T08:36:48.401Z,13840.9229
2023-05-14T08:37:49.819Z,13848.0771
2023-05-14T08:38:51.253Z,13833.2305
2023-05-14T08:39:52.680Z,13819.0771
2023-05-14T08:40:54.116Z,13813.1543
2023-05-14T08:41:55.462Z,13805.0771
2023-05-14T08:42:56.960Z,13800.2305
2023-05-14T08:43:58.381Z,13815.3848
2023-05-14T08:44:59.755Z,13847.7695
2023-05-14T08:46:01.217Z,13844.7695
2023-05-14T08:47:02.647Z,13829.1543
2023-05-14T08:48:04.091Z,13818.3848
2023-05-14T08:49:05.593Z,13811.3848
2023-05-14T08:50:06.864Z,13804.6152
2023-05-14T08:51:08.250Z,13798.9229
2023-05-14T08:52:09.640Z,13821.0771
2023-05-14T08:53:11.109Z,13842.5381
2023-05-14T08:54:12.481Z,13830.3848
2023-05-14T08:55:14.051Z,13816.6924
2023-05-14T08:56:15.336Z,13807.0771
2023-05-14T08:57:16.799Z,13800.6152
2023-05-14T08:58:18.136Z,13798.8457
2023-05-14T08:59:19.713Z,13824.3848
2023-05-14T09:00:21.164Z,13834.8457
2023-05-14T09:01:22.582Z,13823.6924
2023-05-14T09:02:23.937Z,13810.7695
2023-05-14T09:03:25.432Z,13805.9229
2023-05-14T09:04:26.818Z,13795.0000
2023-05-14T09:05:28.253Z,13793.2305
2023-05-14T09:06:29.688Z,13817.6152
2023-05-14T09:07:31.024Z,13840.2305
2023-05-14T09:08:32.397Z,13826.2305
2023-05-14T09:09:33.922Z,13818.6152
2023-05-14T09:10:35.344Z,13807.4619
2023-05-14T09:11:36.692Z,13798.6924
2023-05-14T09:12:38.176Z,13798.6924
2023-05-14T09:13:39.574Z,13797.5381
2023-05-14T09:14:41.004Z,13830.9229
2023-05-14T09:15:42.360Z,13845.5381
2023-05-14T09:16:43.886Z,13826.6152
2023-05-14T09:17:45.320Z,13819.3076
2023-05-14T09:18:46.810Z,13809.1543
2023-05-14T09:19:48.205Z,13801.8457
2023-05-14T09:20:49.497Z,13799.6924
2023-05-14T09:21:50.932Z,13807.9229
2023-05-14T09:22:52.364Z,13844.5381
2023-05-14T09:23:53.796Z,13841.3848
2023-05-14T09:24:55.256Z,13825.6152
2023-05-14T09:25:56.748Z,13815.6924
2023-05-14T09:26:58.042Z,13809.9229
2023-05-14T09:27:59.482Z,13801.1543
2023-05-14T09:29:00.764Z,13799.6152
2023-05-14T09:30:02.413Z,13800.9229
2023-05-14T09:31:03.869Z,13834.9229
2023-05-14T09:32:05.353Z,13838.9229
2023-05-14T09:33:06.591Z,13827.3076
2023-05-14T09:34:08.038Z,13820.5381
2023-05-14T09:35:09.520Z,13808.5381
2023-05-14T09:36:11.038Z,13805.1543
2023-05-14T09:37:12.401Z,13801.0771
2023-05-14T09:38:13.869Z,13797.8457
2023-05-14T09:39:15.272Z,13827.8457
2023-05-14T09:40:16.832Z,13851.6924
2023-05-14T09:41:18.108Z,13835.6924
2023-05-14T09:42:19.530Z,13827.1543
2023-05-14T09:43:20.978Z,13816.3848
2023-05-14T09:44:22.374Z,13812.6152
2023-05-14T09:45:23.813Z,13806.8457
2023-05-14T09:46:25.294Z,13803.7695
2023-05-14T09:47:26.706Z,13799.0000
2023-05-14T09:48:28.143Z,13831.7695
2023-05-14T09:49:29.492Z,13841.6152
2023-05-14T09:50:30.976Z,13831.7695
2023-05-14T09:51:32.399Z,13823.3076
2023-05-14T09:52:33.832Z,13807.7695
2023-05-14T09:53:35.287Z,13809.0771
2023-05-14T09:54:36.613Z,13805.0000
2023-05-14T09:55:38.106Z,13806.9229
2023-05-14T09:56:39.627Z,13843.7695
2023-05-14T09:57:40.987Z,13845.0771
2023-05-14T09:58:42.265Z,13828.6152
2023-05-14T09:59:43.837Z,13822.6152
2023-05-14T10:00:45.239Z,13811.6924
2023-05-14T10:01:46.707Z,13799.3848
2023-05-14T10:02:48.144Z,13795.5381
2023-05-14T10:03:49.644Z,13799.2305
2023-05-14T10:04:50.963Z,13838.7695
2023-05-14T10:05:52.462Z,13838.2305
2023-05-14T10:06:53.837Z,13826.3076
2023-05-14T10:07:55.333Z,13808.7695
2023-05-14T10:08:56.613Z,13797.2305
2023-05-14T10:09:59.590Z,13793.7695
2023-05-14T10:10:59.529Z,13789.0000
2023-05-14T10:12:00.965Z,13829.2305
2023-05-14T10:13:02.479Z,13842.9229
2023-05-14T10:14:03.780Z,13820.8457
2023-05-14T10:15:05.158Z,13812.3848
2023-05-14T10:16:06.661Z,13797.0000
2023-05-14T10:17:08.436Z,13785.9229
2023-05-14T10:18:09.710Z,13780.2305
2023-05-14T10:19:10.931Z,13809.4619
2023-05-14T10:20:12.426Z,13835.0000
2023-05-14T10:21:13.767Z,13823.6924
2023-05-14T10:22:15.197Z,13805.8457
2023-05-14T10:23:16.626Z,13795.0771
2023-05-14T10:24:18.116Z,13782.7695
2023-05-14T10:25:19.447Z,13778.6924
2023-05-14T10:26:23.087Z,13794.6924
2023-05-14T10:27:22.380Z,13834.9229
2023-05-14T10:28:23.784Z,13828.7695
2023-05-14T10:29:25.246Z,13806.3076
2023-05-14T10:30:26.889Z,13793.6924
2023-05-14T10:31:28.107Z,13778.4619
2023-05-14T10:32:29.622Z,13786.6924
2023-05-14T10:33:30.921Z,13829.3076
2023-05-14T10:34:32.382Z,13829.3076
2023-05-14T10:35:33.603Z,13807.0771
2023-05-14T10:36:35.190Z,13792.0000
2023-05-14T10:37:36.630Z,13776.0771
2023-05-14T10:38:38.067Z,13768.5381
2023-05-14T10:39:39.505Z,13796.4619
2023-05-14T10:40:40.864Z,13831.0771
2023-05-14T10:41:42.288Z,13822.6152
2023-05-14T10:42:43.734Z,13803.9229
2023-05-14T10:43:45.167Z,13790.8457
2023-05-14T10:44:46.611Z,13775.3076
2023-05-14T10:45:47.949Z,13778.2305
2023-05-14T10:46:49.467Z,13823.3848
2023-05-14T10:47:51.045Z,13823.0771
2023-05-14T10:48:52.337Z,13805.3848
2023-05-14T10:49:53.700Z,13792.0000
2023-05-14T10:50:55.209Z,13778.8457
2023-05-14T10:51:56.527Z,13770.0000
2023-05-14T10:52:57.941Z,13797.3076
2023-05-14T10:53:59.371Z,13832.8457
2023-05-14T10:55:03.189Z,13820.3076
2023-05-14T10:56:02.250Z,13800.3076
2023-05-14T10:57:03.531Z,13787.3848
2023-05-14T10:58:05.211Z,13776.6152
2023-05-14T10:59:06.663Z,13770.4619
2023-05-14T11:00:08.664Z,13807.5381
2023-05-14T11:01:09.343Z,13827.3076
2023-05-14T11:02:10.868Z,13811.3076
2023-05-14T11:03:12.417Z,13792.0771
2023-05-14T11:04:13.795Z,13777.5381
2023-05-14T11:05:15.069Z,13770.6152
2023-05-14T11:06:16.541Z,13796.1543
2023-05-14T11:07:17.934Z,13824.0000
2023-05-14T11:08:19.358Z,13812.9229
2023-05-14T11:09:20.812Z,13798.8457
2023-05-14T11:10:22.510Z,13786.1543
2023-05-14T11:11:23.615Z,13776.4619
2023-05-14T11:12:25.010Z,13781.6152
2023-05-14T11:13:26.291Z,13821.2305
2023-05-14T11:14:27.887Z,13815.9229
2023-05-14T11:15:29.342Z,13800.9229
2023-05-14T11:16:30.691Z,13790.0771
2023-05-14T11:17:32.202Z,13779.9229
2023-05-14T11:18:33.643Z,13768.8457
2023-05-14T11:19:35.015Z,13789.5381
2023-05-14T11:20:36.362Z,13819.3848
2023-05-14T11:21:37.879Z,13813.5381